sensor_id;sensor_type;location;lat;lon;timestamp;P1;durP1;ratioP1;P2;durP2;ratioP2
12429;SDS011;6279;42.192;24.326;2022-11-11T00:00:26;39.90;;;29.40;;
12429;SDS011;6279;42.192;24.326;2022-11-11T00:02:53;38.03;;;28.00;;
12429;SDS011;6279;42.192;24.326;2022-11-11T00:05:20;42.70;;;29.73;;
12429;SDS011;6279;42.192;24.326;2022-11-11T00:07:45;36.87;;;28.47;;
12429;SDS011;6279;42.192;24.326;2022-11-11T00:10:11;41.97;;;28.10;;
12429;SDS011;6279;42.192;24.326;2022-11-11T00:12:37;44.90;;;28.90;;
12429;SDS011;6279;42.192;24.326;2022-11-11T00:15:02;40.37;;;28.37;;
12429;SDS011;6279;42.192;24.326;2022-11-11T00:17:28;39.03;;;28.00;;
12429;SDS011;6279;42.192;24.326;2022-11-11T00:20:11;41.27;;;28.33;;
12429;SDS011;6279;42.192;24.326;2022-11-11T00:22:56;37.97;;;28.40;;
12429;SDS011;6279;42.192;24.326;2022-11-11T00:25:40;41.93;;;28.90;;
12429;SDS011;6279;42.192;24.326;2022-11-11T00:28:05;38.00;;;28.70;;
12429;SDS011;6279;42.192;24.326;2022-11-11T00:30:31;42.43;;;27.83;;
12429;SDS011;6279;42.192;24.326;2022-11-11T00:32:56;37.97;;;26.37;;
12429;SDS011;6279;42.192;24.326;2022-11-11T00:35:22;37.07;;;26.97;;
12429;SDS011;6279;42.192;24.326;2022-11-11T00:38:10;36.40;;;26.90;;
12429;SDS011;6279;42.192;24.326;2022-11-11T00:40:57;38.50;;;26.27;;
12429;SDS011;6279;42.192;24.326;2022-11-11T00:43:22;39.17;;;26.93;;
12429;SDS011;6279;42.192;24.326;2022-11-11T00:45:48;37.33;;;26.33;;
12429;SDS011;6279;42.192;24.326;2022-11-11T00:48:13;35.40;;;27.03;;
12429;SDS011;6279;42.192;24.326;2022-11-11T00:50:57;37.17;;;26.33;;
12429;SDS011;6279;42.192;24.326;2022-11-11T00:53:29;38.77;;;26.90;;
12429;SDS011;6279;42.192;24.326;2022-11-11T00:56:00;37.27;;;26.33;;
12429;SDS011;6279;42.192;24.326;2022-11-11T00:58:26;38.33;;;26.20;;
12429;SDS011;6279;42.192;24.326;2022-11-11T01:00:52;41.63;;;26.63;;
12429;SDS011;6279;42.192;24.326;2022-11-11T01:03:18;35.93;;;26.93;;
12429;SDS011;6279;42.192;24.326;2022-11-11T01:05:44;34.67;;;26.27;;
12429;SDS011;6279;42.192;24.326;2022-11-11T01:08:09;33.80;;;25.83;;
12429;SDS011;6279;42.192;24.326;2022-11-11T01:10:35;36.83;;;26.37;;
12429;SDS011;6279;42.192;24.326;2022-11-11T01:13:24;33.90;;;24.80;;
12429;SDS011;6279;42.192;24.326;2022-11-11T01:15:56;33.60;;;25.10;;
12429;SDS011;6279;42.192;24.326;2022-11-11T01:18:23;33.87;;;25.40;;
12429;SDS011;6279;42.192;24.326;2022-11-11T01:21:23;35.97;;;26.53;;
12429;SDS011;6279;42.192;24.326;2022-11-11T01:23:42;36.70;;;25.60;;
12429;SDS011;6279;42.192;24.326;2022-11-11T01:26:16;31.80;;;24.83;;
12429;SDS011;6279;42.192;24.326;2022-11-11T01:28:43;33.07;;;25.90;;
12429;SDS011;6279;42.192;24.326;2022-11-11T01:31:10;32.53;;;25.20;;
12429;SDS011;6279;42.192;24.326;2022-11-11T01:33:38;39.07;;;26.23;;
12429;SDS011;6279;42.192;24.326;2022-11-11T01:38:30;40.60;;;26.30;;
12429;SDS011;6279;42.192;24.326;2022-11-11T01:40:56;35.63;;;24.40;;
12429;SDS011;6279;42.192;24.326;2022-11-11T01:43:22;37.83;;;26.47;;
12429;SDS011;6279;42.192;24.326;2022-11-11T01:48:21;35.70;;;25.37;;
12429;SDS011;6279;42.192;24.326;2022-11-11T01:51:33;39.83;;;26.20;;
12429;SDS011;6279;42.192;24.326;2022-11-11T01:54:03;33.30;;;26.27;;
12429;SDS011;6279;42.192;24.326;2022-11-11T01:56:32;35.67;;;25.80;;
12429;SDS011;6279;42.192;24.326;2022-11-11T01:59:03;35.53;;;25.47;;
12429;SDS011;6279;42.192;24.326;2022-11-11T02:01:36;34.90;;;26.30;;
12429;SDS011;6279;42.192;24.326;2022-11-11T02:04:02;38.50;;;27.03;;
12429;SDS011;6279;42.192;24.326;2022-11-11T02:06:49;37.13;;;26.77;;
12429;SDS011;6279;42.192;24.326;2022-11-11T02:09:17;35.47;;;26.27;;
12429;SDS011;6279;42.192;24.326;2022-11-11T02:11:44;37.03;;;26.43;;
12429;SDS011;6279;42.192;24.326;2022-11-11T02:14:29;40.03;;;28.53;;
12429;SDS011;6279;42.192;24.326;2022-11-11T02:17:00;32.30;;;24.43;;
12429;SDS011;6279;42.192;24.326;2022-11-11T02:19:53;35.00;;;26.33;;
12429;SDS011;6279;42.192;24.326;2022-11-11T02:25:10;34.47;;;24.73;;
12429;SDS011;6279;42.192;24.326;2022-11-11T02:27:39;33.43;;;24.60;;
12429;SDS011;6279;42.192;24.326;2022-11-11T02:30:07;30.67;;;23.20;;
12429;SDS011;6279;42.192;24.326;2022-11-11T02:32:39;32.63;;;23.83;;
12429;SDS011;6279;42.192;24.326;2022-11-11T02:35:16;33.30;;;24.70;;
12429;SDS011;6279;42.192;24.326;2022-11-11T02:37:45;33.57;;;23.33;;
12429;SDS011;6279;42.192;24.326;2022-11-11T02:40:15;30.13;;;22.97;;
12429;SDS011;6279;42.192;24.326;2022-11-11T02:43:01;27.13;;;21.70;;
12429;SDS011;6279;42.192;24.326;2022-11-11T02:45:27;29.70;;;22.10;;
12429;SDS011;6279;42.192;24.326;2022-11-11T02:47:52;30.03;;;22.07;;
12429;SDS011;6279;42.192;24.326;2022-11-11T02:50:18;31.87;;;22.90;;
12429;SDS011;6279;42.192;24.326;2022-11-11T02:52:43;31.33;;;23.07;;
12429;SDS011;6279;42.192;24.326;2022-11-11T02:55:09;30.50;;;23.63;;
12429;SDS011;6279;42.192;24.326;2022-11-11T02:57:34;28.80;;;23.40;;
12429;SDS011;6279;42.192;24.326;2022-11-11T03:00:00;31.27;;;22.87;;
12429;SDS011;6279;42.192;24.326;2022-11-11T03:02:27;33.33;;;23.63;;
12429;SDS011;6279;42.192;24.326;2022-11-11T03:04:53;31.07;;;23.60;;
12429;SDS011;6279;42.192;24.326;2022-11-11T03:07:20;32.77;;;23.23;;
12429;SDS011;6279;42.192;24.326;2022-11-11T03:09:46;31.57;;;22.47;;
12429;SDS011;6279;42.192;24.326;2022-11-11T03:12:11;32.37;;;23.90;;
12429;SDS011;6279;42.192;24.326;2022-11-11T03:14:37;31.57;;;23.00;;
12429;SDS011;6279;42.192;24.326;2022-11-11T03:17:02;31.70;;;23.70;;
12429;SDS011;6279;42.192;24.326;2022-11-11T03:19:46;31.90;;;23.17;;
12429;SDS011;6279;42.192;24.326;2022-11-11T03:22:11;31.97;;;22.80;;
12429;SDS011;6279;42.192;24.326;2022-11-11T03:24:36;31.83;;;22.37;;
12429;SDS011;6279;42.192;24.326;2022-11-11T03:27:20;34.40;;;24.00;;
12429;SDS011;6279;42.192;24.326;2022-11-11T03:29:46;35.23;;;25.63;;
12429;SDS011;6279;42.192;24.326;2022-11-11T03:32:11;39.10;;;27.57;;
12429;SDS011;6279;42.192;24.326;2022-11-11T03:34:37;36.27;;;26.33;;
12429;SDS011;6279;42.192;24.326;2022-11-11T03:37:06;36.83;;;26.43;;
12429;SDS011;6279;42.192;24.326;2022-11-11T03:39:52;39.57;;;27.47;;
12429;SDS011;6279;42.192;24.326;2022-11-11T03:42:17;34.60;;;24.50;;
12429;SDS011;6279;42.192;24.326;2022-11-11T03:44:43;34.47;;;26.37;;
12429;SDS011;6279;42.192;24.326;2022-11-11T03:47:08;38.00;;;26.23;;
12429;SDS011;6279;42.192;24.326;2022-11-11T03:49:33;32.73;;;25.30;;
12429;SDS011;6279;42.192;24.326;2022-11-11T03:51:59;30.37;;;23.73;;
12429;SDS011;6279;42.192;24.326;2022-11-11T03:54:24;35.67;;;24.67;;
12429;SDS011;6279;42.192;24.326;2022-11-11T03:56:49;34.63;;;25.27;;
12429;SDS011;6279;42.192;24.326;2022-11-11T03:59:15;40.23;;;25.13;;
12429;SDS011;6279;42.192;24.326;2022-11-11T04:01:40;35.50;;;25.40;;
12429;SDS011;6279;42.192;24.326;2022-11-11T04:04:24;32.30;;;24.87;;
12429;SDS011;6279;42.192;24.326;2022-11-11T04:07:08;33.30;;;23.53;;
12429;SDS011;6279;42.192;24.326;2022-11-11T04:09:53;33.87;;;24.50;;
12429;SDS011;6279;42.192;24.326;2022-11-11T04:12:36;35.40;;;25.43;;
12429;SDS011;6279;42.192;24.326;2022-11-11T04:15:23;35.00;;;25.83;;
12429;SDS011;6279;42.192;24.326;2022-11-11T04:18:07;35.07;;;25.13;;
12429;SDS011;6279;42.192;24.326;2022-11-11T04:20:32;33.90;;;25.07;;
12429;SDS011;6279;42.192;24.326;2022-11-11T04:23:16;33.83;;;24.17;;
12429;SDS011;6279;42.192;24.326;2022-11-11T04:25:41;32.47;;;24.50;;
12429;SDS011;6279;42.192;24.326;2022-11-11T04:28:13;33.10;;;24.50;;
12429;SDS011;6279;42.192;24.326;2022-11-11T04:30:56;38.63;;;24.17;;
12429;SDS011;6279;42.192;24.326;2022-11-11T04:33:22;47.90;;;32.23;;
12429;SDS011;6279;42.192;24.326;2022-11-11T04:35:48;42.67;;;31.27;;
12429;SDS011;6279;42.192;24.326;2022-11-11T04:38:13;42.90;;;29.17;;
12429;SDS011;6279;42.192;24.326;2022-11-11T04:40:57;42.43;;;30.57;;
12429;SDS011;6279;42.192;24.326;2022-11-11T04:43:29;44.63;;;31.33;;
12429;SDS011;6279;42.192;24.326;2022-11-11T04:46:16;41.23;;;29.60;;
12429;SDS011;6279;42.192;24.326;2022-11-11T04:48:42;41.57;;;30.70;;
12429;SDS011;6279;42.192;24.326;2022-11-11T04:51:07;56.77;;;39.53;;
12429;SDS011;6279;42.192;24.326;2022-11-11T04:53:33;56.50;;;42.17;;
12429;SDS011;6279;42.192;24.326;2022-11-11T04:55:58;50.93;;;37.90;;
12429;SDS011;6279;42.192;24.326;2022-11-11T04:58:42;45.27;;;34.00;;
12429;SDS011;6279;42.192;24.326;2022-11-11T05:01:07;51.37;;;35.77;;
12429;SDS011;6279;42.192;24.326;2022-11-11T05:03:33;55.53;;;36.97;;
12429;SDS011;6279;42.192;24.326;2022-11-11T05:05:58;59.60;;;39.73;;
12429;SDS011;6279;42.192;24.326;2022-11-11T05:08:47;52.07;;;37.83;;
12429;SDS011;6279;42.192;24.326;2022-11-11T05:13:52;50.07;;;34.07;;
12429;SDS011;6279;42.192;24.326;2022-11-11T05:19:29;42.07;;;32.53;;
12429;SDS011;6279;42.192;24.326;2022-11-11T05:24:56;50.73;;;29.97;;
12429;SDS011;6279;42.192;24.326;2022-11-11T05:27:41;41.87;;;29.27;;
12429;SDS011;6279;42.192;24.326;2022-11-11T05:30:07;52.50;;;29.97;;
12429;SDS011;6279;42.192;24.326;2022-11-11T05:32:35;43.53;;;29.80;;
12429;SDS011;6279;42.192;24.326;2022-11-11T05:35:00;40.73;;;30.20;;
12429;SDS011;6279;42.192;24.326;2022-11-11T05:37:26;43.87;;;30.70;;
12429;SDS011;6279;42.192;24.326;2022-11-11T05:39:52;40.33;;;27.77;;
12429;SDS011;6279;42.192;24.326;2022-11-11T05:42:17;36.67;;;26.60;;
12429;SDS011;6279;42.192;24.326;2022-11-11T05:44:43;39.10;;;27.90;;
12429;SDS011;6279;42.192;24.326;2022-11-11T05:47:08;41.00;;;26.43;;
12429;SDS011;6279;42.192;24.326;2022-11-11T05:49:34;34.23;;;23.90;;
12429;SDS011;6279;42.192;24.326;2022-11-11T05:51:59;36.70;;;23.57;;
12429;SDS011;6279;42.192;24.326;2022-11-11T05:54:25;29.57;;;22.07;;
12429;SDS011;6279;42.192;24.326;2022-11-11T05:56:50;31.23;;;21.97;;
12429;SDS011;6279;42.192;24.326;2022-11-11T05:59:16;36.67;;;21.13;;
12429;SDS011;6279;42.192;24.326;2022-11-11T06:01:41;29.60;;;21.57;;
12429;SDS011;6279;42.192;24.326;2022-11-11T06:04:07;27.87;;;19.87;;
12429;SDS011;6279;42.192;24.326;2022-11-11T06:06:33;31.57;;;21.53;;
12429;SDS011;6279;42.192;24.326;2022-11-11T06:08:59;27.63;;;19.13;;
12429;SDS011;6279;42.192;24.326;2022-11-11T06:11:25;25.10;;;19.47;;
12429;SDS011;6279;42.192;24.326;2022-11-11T06:13:52;27.23;;;19.60;;
12429;SDS011;6279;42.192;24.326;2022-11-11T06:16:18;33.90;;;19.40;;
12429;SDS011;6279;42.192;24.326;2022-11-11T06:18:43;25.13;;;18.17;;
12429;SDS011;6279;42.192;24.326;2022-11-11T06:21:09;28.07;;;19.70;;
12429;SDS011;6279;42.192;24.326;2022-11-11T06:23:34;27.00;;;18.87;;
12429;SDS011;6279;42.192;24.326;2022-11-11T06:25:59;28.77;;;19.03;;
12429;SDS011;6279;42.192;24.326;2022-11-11T06:28:41;27.37;;;17.97;;
12429;SDS011;6279;42.192;24.326;2022-11-11T06:31:07;24.70;;;17.23;;
12429;SDS011;6279;42.192;24.326;2022-11-11T06:33:33;24.53;;;17.63;;
12429;SDS011;6279;42.192;24.326;2022-11-11T06:36:00;21.47;;;17.73;;
12429;SDS011;6279;42.192;24.326;2022-11-11T06:38:26;21.83;;;17.63;;
12429;SDS011;6279;42.192;24.326;2022-11-11T06:40:52;23.40;;;17.67;;
12429;SDS011;6279;42.192;24.326;2022-11-11T06:43:17;22.87;;;17.57;;
12429;SDS011;6279;42.192;24.326;2022-11-11T06:45:43;27.30;;;17.57;;
12429;SDS011;6279;42.192;24.326;2022-11-11T06:48:09;25.80;;;17.13;;
12429;SDS011;6279;42.192;24.326;2022-11-11T06:50:35;23.90;;;18.47;;
12429;SDS011;6279;42.192;24.326;2022-11-11T06:53:07;20.80;;;16.47;;
12429;SDS011;6279;42.192;24.326;2022-11-11T06:55:34;17.97;;;15.73;;
12429;SDS011;6279;42.192;24.326;2022-11-11T06:58:04;22.23;;;17.30;;
12429;SDS011;6279;42.192;24.326;2022-11-11T07:00:37;23.83;;;17.80;;
12429;SDS011;6279;42.192;24.326;2022-11-11T07:03:04;25.40;;;17.83;;
12429;SDS011;6279;42.192;24.326;2022-11-11T07:05:31;23.00;;;16.90;;
12429;SDS011;6279;42.192;24.326;2022-11-11T07:08:01;22.07;;;16.97;;
12429;SDS011;6279;42.192;24.326;2022-11-11T07:10:28;25.37;;;18.60;;
12429;SDS011;6279;42.192;24.326;2022-11-11T07:12:53;21.63;;;17.23;;
12429;SDS011;6279;42.192;24.326;2022-11-11T07:15:19;17.30;;;15.20;;
12429;SDS011;6279;42.192;24.326;2022-11-11T07:17:44;22.70;;;16.47;;
12429;SDS011;6279;42.192;24.326;2022-11-11T07:20:10;23.83;;;16.93;;
12429;SDS011;6279;42.192;24.326;2022-11-11T07:22:35;21.17;;;16.10;;
12429;SDS011;6279;42.192;24.326;2022-11-11T07:25:01;19.77;;;17.00;;
12429;SDS011;6279;42.192;24.326;2022-11-11T07:27:27;21.57;;;17.13;;
12429;SDS011;6279;42.192;24.326;2022-11-11T07:29:53;20.17;;;17.60;;
12429;SDS011;6279;42.192;24.326;2022-11-11T07:32:18;24.53;;;17.73;;
12429;SDS011;6279;42.192;24.326;2022-11-11T07:34:43;20.83;;;17.03;;
12429;SDS011;6279;42.192;24.326;2022-11-11T07:37:09;21.60;;;16.93;;
12429;SDS011;6279;42.192;24.326;2022-11-11T07:39:34;23.63;;;18.43;;
12429;SDS011;6279;42.192;24.326;2022-11-11T07:42:00;20.47;;;16.77;;
12429;SDS011;6279;42.192;24.326;2022-11-11T07:44:25;24.20;;;16.87;;
12429;SDS011;6279;42.192;24.326;2022-11-11T07:46:51;24.00;;;17.73;;
12429;SDS011;6279;42.192;24.326;2022-11-11T07:49:16;23.87;;;17.57;;
12429;SDS011;6279;42.192;24.326;2022-11-11T07:51:41;32.00;;;18.47;;
12429;SDS011;6279;42.192;24.326;2022-11-11T07:54:07;21.80;;;17.33;;
12429;SDS011;6279;42.192;24.326;2022-11-11T07:56:34;19.73;;;15.73;;
12429;SDS011;6279;42.192;24.326;2022-11-11T07:58:59;19.30;;;15.57;;
12429;SDS011;6279;42.192;24.326;2022-11-11T08:01:25;21.03;;;16.47;;
12429;SDS011;6279;42.192;24.326;2022-11-11T08:03:50;18.87;;;15.70;;
12429;SDS011;6279;42.192;24.326;2022-11-11T08:06:16;20.43;;;15.23;;
12429;SDS011;6279;42.192;24.326;2022-11-11T08:08:43;17.67;;;15.33;;
12429;SDS011;6279;42.192;24.326;2022-11-11T08:11:09;17.57;;;15.17;;
12429;SDS011;6279;42.192;24.326;2022-11-11T08:13:34;18.73;;;14.73;;
12429;SDS011;6279;42.192;24.326;2022-11-11T08:16:09;21.27;;;15.57;;
12429;SDS011;6279;42.192;24.326;2022-11-11T08:18:35;21.70;;;15.93;;
12429;SDS011;6279;42.192;24.326;2022-11-11T08:21:02;20.80;;;15.70;;
12429;SDS011;6279;42.192;24.326;2022-11-11T08:23:28;19.70;;;16.57;;
12429;SDS011;6279;42.192;24.326;2022-11-11T08:26:04;21.07;;;16.33;;
12429;SDS011;6279;42.192;24.326;2022-11-11T08:28:33;20.83;;;15.80;;
12429;SDS011;6279;42.192;24.326;2022-11-11T08:31:00;24.17;;;14.93;;
12429;SDS011;6279;42.192;24.326;2022-11-11T08:33:27;19.43;;;15.30;;
12429;SDS011;6279;42.192;24.326;2022-11-11T08:35:53;17.07;;;14.40;;
12429;SDS011;6279;42.192;24.326;2022-11-11T08:38:20;20.93;;;16.33;;
12429;SDS011;6279;42.192;24.326;2022-11-11T08:40:47;21.57;;;14.97;;
12429;SDS011;6279;42.192;24.326;2022-11-11T08:43:13;20.57;;;15.40;;
12429;SDS011;6279;42.192;24.326;2022-11-11T08:45:39;16.13;;;13.10;;
12429;SDS011;6279;42.192;24.326;2022-11-11T08:48:05;15.27;;;13.30;;
12429;SDS011;6279;42.192;24.326;2022-11-11T08:50:34;16.90;;;12.77;;
12429;SDS011;6279;42.192;24.326;2022-11-11T08:53:00;19.93;;;12.50;;
12429;SDS011;6279;42.192;24.326;2022-11-11T08:55:26;16.43;;;12.97;;
12429;SDS011;6279;42.192;24.326;2022-11-11T08:57:58;24.37;;;12.83;;
12429;SDS011;6279;42.192;24.326;2022-11-11T09:00:24;13.83;;;11.00;;
12429;SDS011;6279;42.192;24.326;2022-11-11T09:02:50;17.97;;;12.13;;
12429;SDS011;6279;42.192;24.326;2022-11-11T09:05:16;15.20;;;12.30;;
12429;SDS011;6279;42.192;24.326;2022-11-11T09:07:41;16.90;;;12.27;;
12429;SDS011;6279;42.192;24.326;2022-11-11T09:10:07;21.97;;;11.33;;
12429;SDS011;6279;42.192;24.326;2022-11-11T09:12:33;17.10;;;12.20;;
12429;SDS011;6279;42.192;24.326;2022-11-11T09:14:58;19.00;;;12.43;;
12429;SDS011;6279;42.192;24.326;2022-11-11T09:17:25;14.93;;;11.60;;
12429;SDS011;6279;42.192;24.326;2022-11-11T09:19:50;14.73;;;12.20;;
12429;SDS011;6279;42.192;24.326;2022-11-11T09:22:16;19.87;;;11.63;;
12429;SDS011;6279;42.192;24.326;2022-11-11T09:24:41;18.10;;;11.73;;
12429;SDS011;6279;42.192;24.326;2022-11-11T09:27:08;15.67;;;11.27;;
12429;SDS011;6279;42.192;24.326;2022-11-11T09:29:34;17.43;;;12.17;;
12429;SDS011;6279;42.192;24.326;2022-11-11T09:32:00;16.57;;;11.63;;
12429;SDS011;6279;42.192;24.326;2022-11-11T09:34:25;16.27;;;11.50;;
12429;SDS011;6279;42.192;24.326;2022-11-11T09:36:50;19.03;;;12.40;;
12429;SDS011;6279;42.192;24.326;2022-11-11T09:39:16;17.67;;;12.03;;
12429;SDS011;6279;42.192;24.326;2022-11-11T09:44:08;17.87;;;11.53;;
12429;SDS011;6279;42.192;24.326;2022-11-11T09:54:56;13.17;;;10.93;;
12429;SDS011;6279;42.192;24.326;2022-11-11T10:00:09;16.67;;;10.17;;
12429;SDS011;6279;42.192;24.326;2022-11-11T10:02:51;14.80;;;10.37;;
12429;SDS011;6279;42.192;24.326;2022-11-11T10:05:26;16.87;;;10.17;;
12429;SDS011;6279;42.192;24.326;2022-11-11T10:10:50;13.97;;;10.60;;
12429;SDS011;6279;42.192;24.326;2022-11-11T10:13:30;13.53;;;10.03;;
12429;SDS011;6279;42.192;24.326;2022-11-11T10:16:03;12.40;;;10.00;;
12429;SDS011;6279;42.192;24.326;2022-11-11T10:21:10;14.43;;;10.67;;
12429;SDS011;6279;42.192;24.326;2022-11-11T10:23:39;15.90;;;10.90;;
12429;SDS011;6279;42.192;24.326;2022-11-11T10:26:06;12.53;;;9.63;;
12429;SDS011;6279;42.192;24.326;2022-11-11T10:28:39;15.73;;;11.93;;
12429;SDS011;6279;42.192;24.326;2022-11-11T10:31:15;17.13;;;11.80;;
12429;SDS011;6279;42.192;24.326;2022-11-11T10:36:30;19.63;;;12.73;;
12429;SDS011;6279;42.192;24.326;2022-11-11T10:38:59;15.57;;;11.83;;
12429;SDS011;6279;42.192;24.326;2022-11-11T10:41:32;15.10;;;11.80;;
12429;SDS011;6279;42.192;24.326;2022-11-11T10:44:01;14.67;;;11.27;;
12429;SDS011;6279;42.192;24.326;2022-11-11T10:46:47;17.23;;;11.67;;
12429;SDS011;6279;42.192;24.326;2022-11-11T10:49:20;14.07;;;11.30;;
12429;SDS011;6279;42.192;24.326;2022-11-11T10:51:55;14.63;;;11.67;;
12429;SDS011;6279;42.192;24.326;2022-11-11T10:54:50;11.60;;;9.63;;
12429;SDS011;6279;42.192;24.326;2022-11-11T10:57:28;15.43;;;10.47;;
12429;SDS011;6279;42.192;24.326;2022-11-11T11:02:29;13.40;;;9.77;;
12429;SDS011;6279;42.192;24.326;2022-11-11T11:05:03;17.67;;;11.00;;
12429;SDS011;6279;42.192;24.326;2022-11-11T11:07:36;14.57;;;10.43;;
12429;SDS011;6279;42.192;24.326;2022-11-11T11:10:15;12.00;;;10.27;;
12429;SDS011;6279;42.192;24.326;2022-11-11T11:12:47;14.40;;;10.97;;
12429;SDS011;6279;42.192;24.326;2022-11-11T11:15:23;13.90;;;10.37;;
12429;SDS011;6279;42.192;24.326;2022-11-11T11:20:18;16.03;;;11.47;;
12429;SDS011;6279;42.192;24.326;2022-11-11T11:25:10;12.07;;;9.70;;
12429;SDS011;6279;42.192;24.326;2022-11-11T11:27:36;12.50;;;10.17;;
12429;SDS011;6279;42.192;24.326;2022-11-11T11:30:09;17.77;;;10.57;;
12429;SDS011;6279;42.192;24.326;2022-11-11T11:32:36;12.73;;;11.00;;
12429;SDS011;6279;42.192;24.326;2022-11-11T11:35:02;16.83;;;11.27;;
12429;SDS011;6279;42.192;24.326;2022-11-11T11:37:28;15.17;;;11.83;;
12429;SDS011;6279;42.192;24.326;2022-11-11T11:40:04;15.60;;;10.83;;
12429;SDS011;6279;42.192;24.326;2022-11-11T11:55:47;16.97;;;9.43;;
12429;SDS011;6279;42.192;24.326;2022-11-11T12:00:53;13.83;;;9.47;;
12429;SDS011;6279;42.192;24.326;2022-11-11T12:03:56;13.17;;;9.50;;
12429;SDS011;6279;42.192;24.326;2022-11-11T12:06:33;10.03;;;8.77;;
12429;SDS011;6279;42.192;24.326;2022-11-11T12:09:08;14.57;;;11.40;;
12429;SDS011;6279;42.192;24.326;2022-11-11T12:12:19;15.90;;;9.70;;
12429;SDS011;6279;42.192;24.326;2022-11-11T12:17:34;12.83;;;10.57;;
12429;SDS011;6279;42.192;24.326;2022-11-11T12:27:59;14.37;;;10.17;;
12429;SDS011;6279;42.192;24.326;2022-11-11T12:30:51;14.17;;;10.93;;
12429;SDS011;6279;42.192;24.326;2022-11-11T12:44:59;15.63;;;9.47;;
12429;SDS011;6279;42.192;24.326;2022-11-11T13:06:22;11.83;;;9.97;;
12429;SDS011;6279;42.192;24.326;2022-11-11T13:12:05;12.80;;;10.50;;
12429;SDS011;6279;42.192;24.326;2022-11-11T13:17:11;12.33;;;9.83;;
12429;SDS011;6279;42.192;24.326;2022-11-11T13:19:39;12.67;;;9.87;;
12429;SDS011;6279;42.192;24.326;2022-11-11T13:24:47;13.57;;;9.27;;
12429;SDS011;6279;42.192;24.326;2022-11-11T13:27:34;13.97;;;9.50;;
12429;SDS011;6279;42.192;24.326;2022-11-11T13:32:46;17.30;;;9.47;;
12429;SDS011;6279;42.192;24.326;2022-11-11T13:35:31;11.40;;;9.03;;
12429;SDS011;6279;42.192;24.326;2022-11-11T13:37:57;15.33;;;9.33;;
12429;SDS011;6279;42.192;24.326;2022-11-11T13:42:58;10.13;;;8.27;;
12429;SDS011;6279;42.192;24.326;2022-11-11T13:48:00;12.27;;;9.53;;
12429;SDS011;6279;42.192;24.326;2022-11-11T13:50:28;11.03;;;9.27;;
12429;SDS011;6279;42.192;24.326;2022-11-11T13:53:02;12.93;;;9.13;;
12429;SDS011;6279;42.192;24.326;2022-11-11T13:55:40;13.73;;;9.67;;
12429;SDS011;6279;42.192;24.326;2022-11-11T13:58:24;10.63;;;9.47;;
12429;SDS011;6279;42.192;24.326;2022-11-11T14:00:56;14.13;;;9.50;;
12429;SDS011;6279;42.192;24.326;2022-11-11T14:06:27;14.17;;;9.67;;
12429;SDS011;6279;42.192;24.326;2022-11-11T14:13:52;12.97;;;8.73;;
12429;SDS011;6279;42.192;24.326;2022-11-11T14:21:47;13.40;;;9.50;;
12429;SDS011;6279;42.192;24.326;2022-11-11T14:27:00;12.37;;;9.40;;
12429;SDS011;6279;42.192;24.326;2022-11-11T14:29:31;12.73;;;9.10;;
12429;SDS011;6279;42.192;24.326;2022-11-11T14:32:03;11.97;;;8.33;;
12429;SDS011;6279;42.192;24.326;2022-11-11T14:37:47;11.53;;;8.53;;
12429;SDS011;6279;42.192;24.326;2022-11-11T14:40:25;14.77;;;11.37;;
12429;SDS011;6279;42.192;24.326;2022-11-11T14:42:53;16.80;;;12.03;;
12429;SDS011;6279;42.192;24.326;2022-11-11T14:47:56;11.57;;;8.30;;
12429;SDS011;6279;42.192;24.326;2022-11-11T14:55:42;10.37;;;6.53;;
12429;SDS011;6279;42.192;24.326;2022-11-11T14:58:17;10.30;;;7.73;;
12429;SDS011;6279;42.192;24.326;2022-11-11T15:01:10;12.77;;;7.70;;
12429;SDS011;6279;42.192;24.326;2022-11-11T15:03:45;10.97;;;7.73;;
12429;SDS011;6279;42.192;24.326;2022-11-11T15:06:17;10.67;;;7.50;;
12429;SDS011;6279;42.192;24.326;2022-11-11T15:08:50;7.73;;;6.40;;
12429;SDS011;6279;42.192;24.326;2022-11-11T15:11:43;7.33;;;6.30;;
12429;SDS011;6279;42.192;24.326;2022-11-11T15:20:26;12.47;;;8.33;;
12429;SDS011;6279;42.192;24.326;2022-11-11T15:23:24;9.17;;;6.20;;
12429;SDS011;6279;42.192;24.326;2022-11-11T15:29:04;7.80;;;5.83;;
12429;SDS011;6279;42.192;24.326;2022-11-11T15:34:40;8.10;;;6.17;;
12429;SDS011;6279;42.192;24.326;2022-11-11T15:37:14;7.60;;;6.20;;
12429;SDS011;6279;42.192;24.326;2022-11-11T15:39:42;7.57;;;5.47;;
12429;SDS011;6279;42.192;24.326;2022-11-11T15:44:55;9.57;;;5.73;;
12429;SDS011;6279;42.192;24.326;2022-11-11T15:47:23;11.90;;;6.73;;
12429;SDS011;6279;42.192;24.326;2022-11-11T15:49:49;15.57;;;8.67;;
12429;SDS011;6279;42.192;24.326;2022-11-11T15:54:47;19.13;;;11.27;;
12429;SDS011;6279;42.192;24.326;2022-11-11T15:59:54;12.37;;;7.73;;
12429;SDS011;6279;42.192;24.326;2022-11-11T16:02:22;12.57;;;7.30;;
12429;SDS011;6279;42.192;24.326;2022-11-11T16:05:00;14.17;;;7.13;;
12429;SDS011;6279;42.192;24.326;2022-11-11T16:07:43;9.43;;;5.67;;
12429;SDS011;6279;42.192;24.326;2022-11-11T16:10:14;7.43;;;5.90;;
12429;SDS011;6279;42.192;24.326;2022-11-11T16:12:46;8.73;;;6.23;;
12429;SDS011;6279;42.192;24.326;2022-11-11T16:15:25;8.23;;;6.20;;
12429;SDS011;6279;42.192;24.326;2022-11-11T16:18:00;11.60;;;8.03;;
12429;SDS011;6279;42.192;24.326;2022-11-11T16:20:33;10.73;;;7.00;;
12429;SDS011;6279;42.192;24.326;2022-11-11T16:23:03;12.93;;;8.27;;
12429;SDS011;6279;42.192;24.326;2022-11-11T16:25:31;13.17;;;8.80;;
12429;SDS011;6279;42.192;24.326;2022-11-11T16:27:58;13.23;;;8.70;;
12429;SDS011;6279;42.192;24.326;2022-11-11T16:30:29;13.47;;;8.63;;
12429;SDS011;6279;42.192;24.326;2022-11-11T16:32:57;11.00;;;8.13;;
12429;SDS011;6279;42.192;24.326;2022-11-11T16:37:51;20.90;;;14.93;;
12429;SDS011;6279;42.192;24.326;2022-11-11T16:42:50;30.13;;;13.63;;
12429;SDS011;6279;42.192;24.326;2022-11-11T16:45:18;21.23;;;10.50;;
12429;SDS011;6279;42.192;24.326;2022-11-11T16:47:48;21.43;;;9.53;;
12429;SDS011;6279;42.192;24.326;2022-11-11T16:50:19;8.23;;;5.20;;
12429;SDS011;6279;42.192;24.326;2022-11-11T16:58:14;6.67;;;4.93;;
12429;SDS011;6279;42.192;24.326;2022-11-11T17:00:44;7.10;;;4.90;;
12429;SDS011;6279;42.192;24.326;2022-11-11T17:03:14;7.07;;;5.13;;
12429;SDS011;6279;42.192;24.326;2022-11-11T17:05:51;6.60;;;4.57;;
12429;SDS011;6279;42.192;24.326;2022-11-11T17:08:32;7.73;;;3.83;;
12429;SDS011;6279;42.192;24.326;2022-11-11T17:11:07;4.23;;;3.40;;
12429;SDS011;6279;42.192;24.326;2022-11-11T17:13:34;6.33;;;4.63;;
12429;SDS011;6279;42.192;24.326;2022-11-11T17:16:03;7.50;;;5.80;;
12429;SDS011;6279;42.192;24.326;2022-11-11T17:18:32;7.20;;;4.77;;
12429;SDS011;6279;42.192;24.326;2022-11-11T17:21:00;5.60;;;4.33;;
12429;SDS011;6279;42.192;24.326;2022-11-11T17:23:26;5.40;;;4.47;;
12429;SDS011;6279;42.192;24.326;2022-11-11T17:25:55;5.90;;;4.77;;
12429;SDS011;6279;42.192;24.326;2022-11-11T17:28:21;8.50;;;5.57;;
12429;SDS011;6279;42.192;24.326;2022-11-11T17:30:47;8.00;;;5.03;;
12429;SDS011;6279;42.192;24.326;2022-11-11T17:33:13;7.90;;;5.57;;
12429;SDS011;6279;42.192;24.326;2022-11-11T17:35:38;9.67;;;6.00;;
12429;SDS011;6279;42.192;24.326;2022-11-11T17:38:03;14.13;;;9.10;;
12429;SDS011;6279;42.192;24.326;2022-11-11T17:40:29;16.03;;;9.47;;